sensor_id;sensor_type;location;lat;lon;timestamp;pressure;altitude;pressure_sealevel;temperature;humidity
79273;BME280;68718;-19.302;146.788;2023-04-10T00:01:48;101394.00;;;27.65;77.10
79273;BME280;68718;-19.302;146.788;2023-04-10T00:04:13;101392.63;;;27.88;73.61
79273;BME280;68718;-19.302;146.788;2023-04-10T00:06:39;101384.49;;;27.99;73.58
79273;BME280;68718;-19.302;146.788;2023-04-10T00:09:04;101379.80;;;28.37;64.45
79273;BME280;68718;-19.302;146.788;2023-04-10T00:11:30;101376.67;;;28.72;64.68
79273;BME280;68718;-19.302;146.788;2023-04-10T00:13:55;101375.11;;;29.19;60.27
79273;BME280;68718;-19.302;146.788;2023-04-10T00:16:20;101370.90;;;28.93;60.28
79273;BME280;68718;-19.302;146.788;2023-04-10T00:18:46;101366.80;;;29.81;60.54
79273;BME280;68718;-19.302;146.788;2023-04-10T00:21:11;101366.20;;;29.53;56.25
79273;BME280;68718;-19.302;146.788;2023-04-10T00:23:37;101360.23;;;30.17;55.37
79273;BME280;68718;-19.302;146.788;2023-04-10T00:26:02;101362.52;;;29.07;58.80
79273;BME280;68718;-19.302;146.788;2023-04-10T00:28:27;101359.09;;;30.88;51.96
79273;BME280;68718;-19.302;146.788;2023-04-10T00:30:53;101363.08;;;30.09;47.17
79273;BME280;68718;-19.302;146.788;2023-04-10T00:33:19;101359.20;;;29.50;49.76
79273;BME280;68718;-19.302;146.788;2023-04-10T00:35:44;101356.19;;;30.82;51.43
79273;BME280;68718;-19.302;146.788;2023-04-10T00:38:09;101354.27;;;31.35;48.05
79273;BME280;68718;-19.302;146.788;2023-04-10T00:40:35;101351.98;;;30.91;48.24
79273;BME280;68718;-19.302;146.788;2023-04-10T00:43:00;101348.81;;;31.14;48.19
79273;BME280;68718;-19.302;146.788;2023-04-10T00:45:25;101339.29;;;30.91;47.90
79273;BME280;68718;-19.302;146.788;2023-04-10T00:47:51;101335.48;;;30.53;47.54
79273;BME280;68718;-19.302;146.788;2023-04-10T00:50:17;101336.28;;;30.22;48.36
79273;BME280;68718;-19.302;146.788;2023-04-10T00:52:42;101327.15;;;31.01;44.93
79273;BME280;68718;-19.302;146.788;2023-04-10T00:55:08;101319.87;;;32.33;43.74
79273;BME280;68718;-19.302;146.788;2023-04-10T00:57:32;101318.82;;;31.71;44.29
79273;BME280;68718;-19.302;146.788;2023-04-10T00:59:57;101319.82;;;30.44;46.76
79273;BME280;68718;-19.302;146.788;2023-04-10T01:02:23;101319.01;;;31.51;47.46
79273;BME280;68718;-19.302;146.788;2023-04-10T01:04:48;101313.05;;;32.78;42.26
79273;BME280;68718;-19.302;146.788;2023-04-10T01:07:19;101309.53;;;32.26;42.19
79273;BME280;68718;-19.302;146.788;2023-04-10T01:09:46;101310.78;;;32.63;41.17
79273;BME280;68718;-19.302;146.788;2023-04-10T01:12:12;101307.03;;;33.46;40.87
79273;BME280;68718;-19.302;146.788;2023-04-10T01:14:35;101303.64;;;32.65;40.41
79273;BME280;68718;-19.302;146.788;2023-04-10T01:17:00;101299.75;;;32.27;40.72
79273;BME280;68718;-19.302;146.788;2023-04-10T01:19:29;101296.36;;;32.82;39.16
79273;BME280;68718;-19.302;146.788;2023-04-10T01:21:46;101289.07;;;32.61;39.39
79273;BME280;68718;-19.302;146.788;2023-04-10T01:24:23;101285.59;;;32.50;38.64
79273;BME280;68718;-19.302;146.788;2023-04-10T01:29:05;101279.63;;;32.80;37.70
79273;BME280;68718;-19.302;146.788;2023-04-10T01:31:35;101277.66;;;31.27;40.39
79273;BME280;68718;-19.302;146.788;2023-04-10T01:33:56;101271.23;;;31.90;39.67
79273;BME280;68718;-19.302;146.788;2023-04-10T01:36:23;101268.85;;;32.81;37.52
79273;BME280;68718;-19.302;146.788;2023-04-10T01:38:43;101263.05;;;32.84;34.52
79273;BME280;68718;-19.302;146.788;2023-04-10T01:41:09;101257.99;;;33.61;35.31
79273;BME280;68718;-19.302;146.788;2023-04-10T01:43:34;101250.61;;;32.73;35.60
79273;BME280;68718;-19.302;146.788;2023-04-10T01:46:01;101239.86;;;32.31;36.85
79273;BME280;68718;-19.302;146.788;2023-04-10T01:48:26;101230.82;;;32.48;36.55
79273;BME280;68718;-19.302;146.788;2023-04-10T01:50:51;101227.83;;;33.52;35.45
79273;BME280;68718;-19.302;146.788;2023-04-10T01:53:16;101223.51;;;33.72;35.23
79273;BME280;68718;-19.302;146.788;2023-04-10T01:55:43;101216.12;;;33.47;35.71
79273;BME280;68718;-19.302;146.788;2023-04-10T01:58:08;101215.90;;;33.18;35.88
79273;BME280;68718;-19.302;146.788;2023-04-10T02:00:37;101212.03;;;32.46;37.22
79273;BME280;68718;-19.302;146.788;2023-04-10T02:02:57;101206.64;;;32.72;36.42
79273;BME280;68718;-19.302;146.788;2023-04-10T02:05:24;101199.30;;;33.35;34.99
79273;BME280;68718;-19.302;146.788;2023-04-10T02:07:53;101196.29;;;32.98;39.26
79273;BME280;68718;-19.302;146.788;2023-04-10T02:10:18;101191.63;;;32.58;40.72
79273;BME280;68718;-19.302;146.788;2023-04-10T02:12:45;101190.79;;;32.33;41.19
79273;BME280;68718;-19.302;146.788;2023-04-10T02:15:06;101189.66;;;33.38;40.07
79273;BME280;68718;-19.302;146.788;2023-04-10T02:17:29;101182.59;;;32.20;40.54
79273;BME280;68718;-19.302;146.788;2023-04-10T02:19:55;101180.65;;;33.11;39.69
79273;BME280;68718;-19.302;146.788;2023-04-10T02:22:19;101174.15;;;33.38;40.77
79273;BME280;68718;-19.302;146.788;2023-04-10T02:24:45;101173.11;;;32.53;40.92
79273;BME280;68718;-19.302;146.788;2023-04-10T02:27:10;101165.60;;;33.32;40.55
79273;BME280;68718;-19.302;146.788;2023-04-10T02:29:35;101154.44;;;34.06;39.41
79273;BME280;68718;-19.302;146.788;2023-04-10T02:32:01;101145.75;;;34.30;38.40
79273;BME280;68718;-19.302;146.788;2023-04-10T02:34:26;101144.30;;;34.43;39.09
79273;BME280;68718;-19.302;146.788;2023-04-10T02:36:52;101139.63;;;33.61;39.85
79273;BME280;68718;-19.302;146.788;2023-04-10T02:39:17;101135.90;;;33.71;40.47
79273;BME280;68718;-19.302;146.788;2023-04-10T02:41:42;101128.12;;;33.54;41.05
79273;BME280;68718;-19.302;146.788;2023-04-10T02:44:08;101125.11;;;32.88;41.94
79273;BME280;68718;-19.302;146.788;2023-04-10T02:46:33;101118.83;;;33.84;39.47
79273;BME280;68718;-19.302;146.788;2023-04-10T02:49:00;101115.76;;;33.15;40.14
79273;BME280;68718;-19.302;146.788;2023-04-10T02:51:23;101108.23;;;33.69;38.86
79273;BME280;68718;-19.302;146.788;2023-04-10T02:53:49;101104.17;;;35.01;37.53
79273;BME280;68718;-19.302;146.788;2023-04-10T02:56:14;101099.62;;;34.14;35.51
79273;BME280;68718;-19.302;146.788;2023-04-10T02:58:39;101097.65;;;34.54;36.16
79273;BME280;68718;-19.302;146.788;2023-04-10T03:01:06;101092.34;;;33.68;35.77
79273;BME280;68718;-19.302;146.788;2023-04-10T03:03:30;101086.91;;;33.85;34.42
79273;BME280;68718;-19.302;146.788;2023-04-10T03:05:56;101082.55;;;33.96;36.72
79273;BME280;68718;-19.302;146.788;2023-04-10T03:08:21;101077.66;;;34.01;33.58
79273;BME280;68718;-19.302;146.788;2023-04-10T03:10:47;101078.51;;;33.94;34.93
79273;BME280;68718;-19.302;146.788;2023-04-10T03:13:12;101074.88;;;33.76;34.60
79273;BME280;68718;-19.302;146.788;2023-04-10T03:15:37;101067.66;;;34.68;33.61
79273;BME280;68718;-19.302;146.788;2023-04-10T03:18:03;101064.23;;;34.17;33.97
79273;BME280;68718;-19.302;146.788;2023-04-10T03:20:28;101056.77;;;35.11;33.06
79273;BME280;68718;-19.302;146.788;2023-04-10T03:22:53;101049.33;;;35.64;32.79
79273;BME280;68718;-19.302;146.788;2023-04-10T03:25:18;101042.37;;;34.61;33.70
79273;BME280;68718;-19.302;146.788;2023-04-10T03:27:43;101039.73;;;34.52;33.64
79273;BME280;68718;-19.302;146.788;2023-04-10T03:30:10;101030.49;;;34.58;33.19
79273;BME280;68718;-19.302;146.788;2023-04-10T03:32:34;101033.50;;;34.90;33.50
79273;BME280;68718;-19.302;146.788;2023-04-10T03:34:59;101024.33;;;34.98;33.21
79273;BME280;68718;-19.302;146.788;2023-04-10T03:37:24;101025.73;;;34.41;34.36
79273;BME280;68718;-19.302;146.788;2023-04-10T03:39:50;101020.21;;;34.29;32.58
79273;BME280;68718;-19.302;146.788;2023-04-10T03:42:15;101018.15;;;35.11;32.13
79273;BME280;68718;-19.302;146.788;2023-04-10T03:44:40;101014.52;;;35.10;31.04
79273;BME280;68718;-19.302;146.788;2023-04-10T03:47:06;101012.05;;;35.13;32.03
79273;BME280;68718;-19.302;146.788;2023-04-10T03:49:31;101008.66;;;35.25;32.17
79273;BME280;68718;-19.302;146.788;2023-04-10T03:51:57;101008.47;;;35.74;32.34
79273;BME280;68718;-19.302;146.788;2023-04-10T03:54:22;101006.00;;;35.22;31.68
79273;BME280;68718;-19.302;146.788;2023-04-10T03:56:47;101003.19;;;36.12;30.42
79273;BME280;68718;-19.302;146.788;2023-04-10T03:59:13;100995.48;;;35.34;31.58
79273;BME280;68718;-19.302;146.788;2023-04-10T04:01:38;100989.58;;;35.52;30.10
79273;BME280;68718;-19.302;146.788;2023-04-10T04:04:04;100990.19;;;35.52;30.73
79273;BME280;68718;-19.302;146.788;2023-04-10T04:06:29;100986.58;;;34.61;32.52
79273;BME280;68718;-19.302;146.788;2023-04-10T04:08:54;100982.03;;;36.22;29.21
79273;BME280;68718;-19.302;146.788;2023-04-10T04:11:19;100977.42;;;35.36;29.62
79273;BME280;68718;-19.302;146.788;2023-04-10T04:13:45;100971.42;;;35.40;29.55
79273;BME280;68718;-19.302;146.788;2023-04-10T04:16:11;100966.47;;;36.05;29.40
79273;BME280;68718;-19.302;146.788;2023-04-10T04:18:35;100964.77;;;36.25;29.18
79273;BME280;68718;-19.302;146.788;2023-04-10T04:21:01;100965.48;;;35.99;29.72
79273;BME280;68718;-19.302;146.788;2023-04-10T04:23:26;100964.22;;;36.31;29.31
79273;BME280;68718;-19.302;146.788;2023-04-10T04:25:52;100960.14;;;36.59;28.61
79273;BME280;68718;-19.302;146.788;2023-04-10T04:28:17;100955.42;;;36.70;29.28
79273;BME280;68718;-19.302;146.788;2023-04-10T04:30:42;100949.87;;;35.93;30.93
79273;BME280;68718;-19.302;146.788;2023-04-10T04:33:08;100949.73;;;34.98;31.74
79273;BME280;68718;-19.302;146.788;2023-04-10T04:35:33;100948.96;;;35.20;32.42
79273;BME280;68718;-19.302;146.788;2023-04-10T04:37:59;100945.66;;;35.34;32.68
79273;BME280;68718;-19.302;146.788;2023-04-10T04:40:24;100944.10;;;35.33;33.45
79273;BME280;68718;-19.302;146.788;2023-04-10T04:42:49;100939.32;;;35.30;32.57
79273;BME280;68718;-19.302;146.788;2023-04-10T04:45:14;100936.66;;;35.27;32.94
79273;BME280;68718;-19.302;146.788;2023-04-10T04:47:40;100933.21;;;35.75;31.84
79273;BME280;68718;-19.302;146.788;2023-04-10T04:50:07;100929.20;;;35.80;32.32
79273;BME280;68718;-19.302;146.788;2023-04-10T04:52:31;100932.86;;;35.50;33.26
79273;BME280;68718;-19.302;146.788;2023-04-10T04:54:56;100933.57;;;35.24;33.47
79273;BME280;68718;-19.302;146.788;2023-04-10T04:57:21;100931.89;;;36.49;31.77
79273;BME280;68718;-19.302;146.788;2023-04-10T04:59:47;100935.91;;;35.99;33.82
79273;BME280;68718;-19.302;146.788;2023-04-10T05:02:13;100932.60;;;36.29;33.98
79273;BME280;68718;-19.302;146.788;2023-04-10T05:04:38;100933.41;;;35.63;35.77
79273;BME280;68718;-19.302;146.788;2023-04-10T05:07:03;100931.40;;;36.02;34.31
79273;BME280;68718;-19.302;146.788;2023-04-10T05:09:29;100933.84;;;35.67;36.52
79273;BME280;68718;-19.302;146.788;2023-04-10T05:11:54;100931.33;;;35.88;36.02
79273;BME280;68718;-19.302;146.788;2023-04-10T05:14:20;100930.74;;;35.52;36.36
79273;BME280;68718;-19.302;146.788;2023-04-10T05:16:45;100929.62;;;35.75;36.50
79273;BME280;68718;-19.302;146.788;2023-04-10T05:19:10;100927.76;;;35.16;37.87
79273;BME280;68718;-19.302;146.788;2023-04-10T05:21:35;100929.86;;;34.55;39.02
79273;BME280;68718;-19.302;146.788;2023-04-10T05:24:01;100928.62;;;35.29;38.79
79273;BME280;68718;-19.302;146.788;2023-04-10T05:26:27;100928.58;;;34.96;39.48
79273;BME280;68718;-19.302;146.788;2023-04-10T05:28:52;100926.53;;;34.88;39.50
79273;BME280;68718;-19.302;146.788;2023-04-10T05:31:17;100924.21;;;35.71;37.87
79273;BME280;68718;-19.302;146.788;2023-04-10T05:33:42;100929.18;;;36.18;36.99
79273;BME280;68718;-19.302;146.788;2023-04-10T05:36:09;100929.85;;;36.41;35.97
79273;BME280;68718;-19.302;146.788;2023-04-10T05:38:33;100933.90;;;36.54;36.29
79273;BME280;68718;-19.302;146.788;2023-04-10T05:40:58;100938.05;;;36.70;35.91
79273;BME280;68718;-19.302;146.788;2023-04-10T05:43:24;100939.96;;;36.58;36.27
79273;BME280;68718;-19.302;146.788;2023-04-10T05:45:49;100941.75;;;37.06;35.40
79273;BME280;68718;-19.302;146.788;2023-04-10T05:48:15;100940.17;;;36.14;36.75
79273;BME280;68718;-19.302;146.788;2023-04-10T05:50:41;100943.67;;;35.96;37.11
79273;BME280;68718;-19.302;146.788;2023-04-10T05:53:05;100941.13;;;36.40;35.61
79273;BME280;68718;-19.302;146.788;2023-04-10T05:55:31;100942.08;;;36.52;35.71
79273;BME280;68718;-19.302;146.788;2023-04-10T05:57:56;100940.67;;;36.61;35.25
79273;BME280;68718;-19.302;146.788;2023-04-10T06:00:21;100949.03;;;36.18;36.16
79273;BME280;68718;-19.302;146.788;2023-04-10T06:02:47;100947.87;;;35.85;37.63
79273;BME280;68718;-19.302;146.788;2023-04-10T06:05:12;100948.55;;;35.68;37.85
79273;BME280;68718;-19.302;146.788;2023-04-10T06:07:37;100946.01;;;35.97;37.92
79273;BME280;68718;-19.302;146.788;2023-04-10T06:10:03;100949.99;;;33.98;40.88
79273;BME280;68718;-19.302;146.788;2023-04-10T06:12:28;100947.54;;;34.96;38.60
79273;BME280;68718;-19.302;146.788;2023-04-10T06:14:54;100950.55;;;35.10;39.03
79273;BME280;68718;-19.302;146.788;2023-04-10T06:17:19;100952.59;;;34.66;39.61
79273;BME280;68718;-19.302;146.788;2023-04-10T06:19:44;100954.15;;;34.89;39.05
79273;BME280;68718;-19.302;146.788;2023-04-10T06:22:10;100962.02;;;34.68;39.70
79273;BME280;68718;-19.302;146.788;2023-04-10T06:24:35;100965.13;;;35.33;38.38
79273;BME280;68718;-19.302;146.788;2023-04-10T06:27:01;100967.07;;;35.70;37.91
79273;BME280;68718;-19.302;146.788;2023-04-10T06:29:26;100964.71;;;35.10;38.80
79273;BME280;68718;-19.302;146.788;2023-04-10T06:31:51;100969.78;;;34.75;39.81
79273;BME280;68718;-19.302;146.788;2023-04-10T06:34:17;100965.17;;;34.30;41.95
79273;BME280;68718;-19.302;146.788;2023-04-10T06:36:42;100965.13;;;34.02;42.21
79273;BME280;68718;-19.302;146.788;2023-04-10T06:39:08;100974.61;;;33.24;45.19
79273;BME280;68718;-19.302;146.788;2023-04-10T06:41:34;100973.20;;;34.05;43.45
79273;BME280;68718;-19.302;146.788;2023-04-10T06:43:58;100978.82;;;33.79;45.05
79273;BME280;68718;-19.302;146.788;2023-04-10T06:46:23;100981.51;;;32.89;46.93
79273;BME280;68718;-19.302;146.788;2023-04-10T06:48:49;100983.20;;;33.25;48.02
79273;BME280;68718;-19.302;146.788;2023-04-10T06:51:14;100983.38;;;32.84;48.88
79273;BME280;68718;-19.302;146.788;2023-04-10T06:53:40;100984.29;;;32.89;48.03
79273;BME280;68718;-19.302;146.788;2023-04-10T06:56:06;100991.01;;;32.31;49.41
79273;BME280;68718;-19.302;146.788;2023-04-10T06:58:31;100987.24;;;33.19;47.50
79273;BME280;68718;-19.302;146.788;2023-04-10T07:00:56;100989.00;;;33.50;47.17
79273;BME280;68718;-19.302;146.788;2023-04-10T07:03:21;100991.24;;;32.82;48.12
79273;BME280;68718;-19.302;146.788;2023-04-10T07:05:47;100991.86;;;32.84;48.28
79273;BME280;68718;-19.302;146.788;2023-04-10T07:08:12;100992.91;;;33.09;48.68
79273;BME280;68718;-19.302;146.788;2023-04-10T07:10:37;100998.94;;;33.21;47.99
79273;BME280;68718;-19.302;146.788;2023-04-10T07:13:03;101005.15;;;32.69;50.71
79273;BME280;68718;-19.302;146.788;2023-04-10T07:15:28;101005.82;;;32.93;49.12
79273;BME280;68718;-19.302;146.788;2023-04-10T07:17:54;101009.23;;;32.81;49.41
79273;BME280;68718;-19.302;146.788;2023-04-10T07:20:19;101011.39;;;32.59;50.29
79273;BME280;68718;-19.302;146.788;2023-04-10T07:22:44;101013.47;;;32.70;49.87
79273;BME280;68718;-19.302;146.788;2023-04-10T07:25:10;101016.52;;;32.58;50.12
79273;BME280;68718;-19.302;146.788;2023-04-10T07:27:35;101018.76;;;32.69;49.35
79273;BME280;68718;-19.302;146.788;2023-04-10T07:30:01;101023.19;;;32.77;49.86
79273;BME280;68718;-19.302;146.788;2023-04-10T07:32:26;101022.36;;;32.22;50.92
79273;BME280;68718;-19.302;146.788;2023-04-10T07:34:51;101024.78;;;32.81;50.33
79273;BME280;68718;-19.302;146.788;2023-04-10T07:37:16;101030.96;;;31.58;52.81
79273;BME280;68718;-19.302;146.788;2023-04-10T07:39:42;101035.49;;;31.95;51.72
79273;BME280;68718;-19.302;146.788;2023-04-10T07:42:08;101041.16;;;32.20;51.32
79273;BME280;68718;-19.302;146.788;2023-04-10T07:44:33;101040.05;;;31.74;52.85
79273;BME280;68718;-19.302;146.788;2023-04-10T07:46:58;101041.92;;;31.85;54.28
79273;BME280;68718;-19.302;146.788;2023-04-10T07:49:23;101046.99;;;32.14;54.19
79273;BME280;68718;-19.302;146.788;2023-04-10T07:51:49;101049.08;;;31.85;53.87
79273;BME280;68718;-19.302;146.788;2023-04-10T07:54:15;101050.45;;;31.71;53.56
79273;BME280;68718;-19.302;146.788;2023-04-10T07:56:40;101052.38;;;31.97;53.62
79273;BME280;68718;-19.302;146.788;2023-04-10T07:59:05;101057.26;;;31.92;52.94
79273;BME280;68718;-19.302;146.788;2023-04-10T08:01:30;101057.23;;;31.76;54.30
79273;BME280;68718;-19.302;146.788;2023-04-10T08:03:56;101060.44;;;31.48;55.54
79273;BME280;68718;-19.302;146.788;2023-04-10T08:06:21;101058.54;;;31.75;54.17
79273;BME280;68718;-19.302;146.788;2023-04-10T08:08:47;101057.83;;;31.71;54.46
79273;BME280;68718;-19.302;146.788;2023-04-10T08:11:23;101060.60;;;32.20;52.44
79273;BME280;68718;-19.302;146.788;2023-04-10T08:13:37;101066.29;;;32.09;53.67
79273;BME280;68718;-19.302;146.788;2023-04-10T08:16:03;101067.06;;;32.34;54.11
79273;BME280;68718;-19.302;146.788;2023-04-10T08:18:28;101066.40;;;32.42;52.92
79273;BME280;68718;-19.302;146.788;2023-04-10T08:20:53;101071.15;;;32.46;51.65
79273;BME280;68718;-19.302;146.788;2023-04-10T08:23:19;101071.51;;;32.63;51.31
79273;BME280;68718;-19.302;146.788;2023-04-10T08:25:44;101077.32;;;32.79;51.41
79273;BME280;68718;-19.302;146.788;2023-04-10T08:28:10;101083.31;;;32.71;50.79
79273;BME280;68718;-19.302;146.788;2023-04-10T08:30:35;101087.91;;;32.41;52.42
79273;BME280;68718;-19.302;146.788;2023-04-10T08:33:00;101095.80;;;33.27;50.26
79273;BME280;68718;-19.302;146.788;2023-04-10T08:35:26;101099.58;;;32.58;52.85
79273;BME280;68718;-19.302;146.788;2023-04-10T08:37:56;101101.34;;;32.75;52.79
79273;BME280;68718;-19.302;146.788;2023-04-10T08:40:17;101102.63;;;32.72;52.53
79273;BME280;68718;-19.302;146.788;2023-04-10T08:42:43;101112.11;;;32.47;53.59
79273;BME280;68718;-19.302;146.788;2023-04-10T08:45:09;101119.41;;;32.53;52.88
79273;BME280;68718;-19.302;146.788;2023-04-10T08:47:36;101125.80;;;32.48;53.13
79273;BME280;68718;-19.302;146.788;2023-04-10T08:50:02;101126.28;;;32.54;53.10
79273;BME280;68718;-19.302;146.788;2023-04-10T08:52:25;101125.21;;;32.54;52.69
79273;BME280;68718;-19.302;146.788;2023-04-10T08:54:53;101124.39;;;32.78;52.66
79273;BME280;68718;-19.302;146.788;2023-04-10T08:57:15;101131.74;;;32.35;53.15
79273;BME280;68718;-19.302;146.788;2023-04-10T08:59:40;101136.68;;;32.37;54.21
79273;BME280;68718;-19.302;146.788;2023-04-10T09:02:06;101137.77;;;31.68;54.68
79273;BME280;68718;-19.302;146.788;2023-04-10T09:04:30;101143.70;;;32.73;53.22
79273;BME280;68718;-19.302;146.788;2023-04-10T09:06:56;101143.62;;;32.54;54.10
79273;BME280;68718;-19.302;146.788;2023-04-10T09:09:22;101142.03;;;32.42;55.98
79273;BME280;68718;-19.302;146.788;2023-04-10T09:11:57;101142.72;;;32.18;56.21
79273;BME280;68718;-19.302;146.788;2023-04-10T09:14:19;101141.30;;;32.36;55.87
79273;BME280;68718;-19.302;146.788;2023-04-10T09:16:37;101146.20;;;32.05;56.44
79273;BME280;68718;-19.302;146.788;2023-04-10T09:19:03;101148.91;;;31.74;57.73
79273;BME280;68718;-19.302;146.788;2023-04-10T09:21:28;101151.47;;;31.64;57.31
79273;BME280;68718;-19.302;146.788;2023-04-10T09:23:59;101156.56;;;31.61;58.20
79273;BME280;68718;-19.302;146.788;2023-04-10T09:26:26;101164.66;;;31.83;57.83
79273;BME280;68718;-19.302;146.788;2023-04-10T09:33:35;101178.63;;;31.58;58.97
79273;BME280;68718;-19.302;146.788;2023-04-10T09:36:01;101182.53;;;31.84;60.27
79273;BME280;68718;-19.302;146.788;2023-04-10T09:38:26;101184.04;;;31.63;58.74
79273;BME280;68718;-19.302;146.788;2023-04-10T09:40:51;101184.58;;;32.12;58.50
79273;BME280;68718;-19.302;146.788;2023-04-10T09:43:21;101187.56;;;32.31;57.25
79273;BME280;68718;-19.302;146.788;2023-04-10T09:45:47;101191.22;;;32.74;55.62
79273;BME280;68718;-19.302;146.788;2023-04-10T09:48:08;101194.60;;;31.89;57.18
79273;BME280;68718;-19.302;146.788;2023-04-10T09:50:37;101194.25;;;32.01;56.82
79273;BME280;68718;-19.302;146.788;2023-04-10T09:52:58;101193.49;;;32.07;56.63
79273;BME280;68718;-19.302;146.788;2023-04-10T09:55:24;101194.84;;;32.09;56.67
79273;BME280;68718;-19.302;146.788;2023-04-10T09:57:50;101195.65;;;31.79;57.66
79273;BME280;68718;-19.302;146.788;2023-04-10T10:00:15;101197.83;;;32.17;55.96
79273;BME280;68718;-19.302;146.788;2023-04-10T10:02:40;101199.55;;;32.11;56.53
79273;BME280;68718;-19.302;146.788;2023-04-10T10:05:06;101201.42;;;32.10;55.59
79273;BME280;68718;-19.302;146.788;2023-04-10T10:07:31;101203.56;;;32.09;56.06
79273;BME280;68718;-19.302;146.788;2023-04-10T10:09:58;101206.60;;;32.10;56.27
79273;BME280;68718;-19.302;146.788;2023-04-10T10:12:25;101209.18;;;31.78;55.99
79273;BME280;68718;-19.302;146.788;2023-04-10T10:14:56;101214.24;;;32.41;55.41
79273;BME280;68718;-19.302;146.788;2023-04-10T10:17:15;101217.14;;;32.04;56.67
79273;BME280;68718;-19.302;146.788;2023-04-10T10:19:44;101219.26;;;32.46;55.44
79273;BME280;68718;-19.302;146.788;2023-04-10T10:22:04;101220.36;;;32.23;55.93
79273;BME280;68718;-19.302;146.788;2023-04-10T10:24:30;101228.57;;;32.33;55.57
79273;BME280;68718;-19.302;146.788;2023-04-10T10:26:54;101233.51;;;32.43;54.30
79273;BME280;68718;-19.302;146.788;2023-04-10T10:29:20;101240.57;;;31.92;56.66
79273;BME280;68718;-19.302;146.788;2023-04-10T10:31:46;101245.63;;;31.49;57.89
79273;BME280;68718;-19.302;146.788;2023-04-10T10:34:10;101246.94;;;31.65;57.74
79273;BME280;68718;-19.302;146.788;2023-04-10T10:36:36;101248.20;;;31.06;59.04
79273;BME280;68718;-19.302;146.788;2023-04-10T10:41:31;101256.12;;;31.26;60.31
79273;BME280;68718;-19.302;146.788;2023-04-10T10:43:59;101258.94;;;31.63;58.96
79273;BME280;68718;-19.302;146.788;2023-04-10T10:46:23;101255.69;;;31.41;59.91
79273;BME280;68718;-19.302;146.788;2023-04-10T10:48:55;101253.05;;;31.45;58.65
79273;BME280;68718;-19.302;146.788;2023-04-10T10:51:08;101251.77;;;31.41;58.99
79273;BME280;68718;-19.302;146.788;2023-04-10T10:53:36;101255.94;;;31.54;58.28
79273;BME280;68718;-19.302;146.788;2023-04-10T10:55:59;101259.10;;;31.62;58.52
79273;BME280;68718;-19.302;146.788;2023-04-10T11:01:04;101261.75;;;31.58;58.01
79273;BME280;68718;-19.302;146.788;2023-04-10T11:03:26;101257.55;;;31.75;57.35
79273;BME280;68718;-19.302;146.788;2023-04-10T11:05:49;101258.57;;;31.64;57.71
79273;BME280;68718;-19.302;146.788;2023-04-10T11:08:08;101258.31;;;31.52;58.31
79273;BME280;68718;-19.302;146.788;2023-04-10T11:15:23;101268.64;;;31.73;59.83
79273;BME280;68718;-19.302;146.788;2023-04-10T11:17:48;101270.38;;;31.38;59.99
79273;BME280;68718;-19.302;146.788;2023-04-10T11:20:19;101269.07;;;31.30;59.69
79273;BME280;68718;-19.302;146.788;2023-04-10T11:25:04;101267.50;;;31.73;58.39
79273;BME280;68718;-19.302;146.788;2023-04-10T11:27:38;101271.57;;;31.89;57.76
79273;BME280;68718;-19.302;146.788;2023-04-10T11:29:54;101278.62;;;31.88;58.21
79273;BME280;68718;-19.302;146.788;2023-04-10T11:32:20;101282.28;;;31.94;58.37
79273;BME280;68718;-19.302;146.788;2023-04-10T11:34:45;101286.03;;;31.50;59.40
79273;BME280;68718;-19.302;146.788;2023-04-10T11:37:10;101286.69;;;31.63;60.16
79273;BME280;68718;-19.302;146.788;2023-04-10T11:39:36;101285.84;;;31.29;60.55
79273;BME280;68718;-19.302;146.788;2023-04-10T11:42:01;101288.27;;;31.41;60.11
79273;BME280;68718;-19.302;146.788;2023-04-10T11:44:30;101287.40;;;31.54;59.99
79273;BME280;68718;-19.302;146.788;2023-04-10T11:46:52;101288.14;;;31.58;59.94
79273;BME280;68718;-19.302;146.788;2023-04-10T11:49:20;101285.33;;;31.23;60.52
79273;BME280;68718;-19.302;146.788;2023-04-10T11:51:46;101285.70;;;31.29;60.54
79273;BME280;68718;-19.302;146.788;2023-04-10T11:54:10;101285.97;;;31.40;60.89
79273;BME280;68718;-19.302;146.788;2023-04-10T11:56:35;101283.60;;;31.51;60.59
79273;BME280;68718;-19.302;146.788;2023-04-10T11:58:59;101279.90;;;31.81;59.54
79273;BME280;68718;-19.302;146.788;2023-04-10T12:01:25;101282.94;;;31.52;60.14
79273;BME280;68718;-19.302;146.788;2023-04-10T12:03:50;101281.52;;;31.26;59.84
79273;BME280;68718;-19.302;146.788;2023-04-10T12:06:15;101280.92;;;31.81;59.15
79273;BME280;68718;-19.302;146.788;2023-04-10T12:08:42;101281.64;;;31.32;60.39
79273;BME280;68718;-19.302;146.788;2023-04-10T12:11:07;101283.96;;;31.02;61.79
79273;BME280;68718;-19.302;146.788;2023-04-10T12:13:32;101281.03;;;31.54;61.00
79273;BME280;68718;-19.302;146.788;2023-04-10T12:15:59;101275.79;;;31.38;61.49
79273;BME280;68718;-19.302;146.788;2023-04-10T12:18:22;101276.92;;;31.12;61.56
79273;BME280;68718;-19.302;146.788;2023-04-10T12:20:48;101282.13;;;31.33;61.37
79273;BME280;68718;-19.302;146.788;2023-04-10T12:23:13;101283.84;;;31.02;61.76
79273;BME280;68718;-19.302;146.788;2023-04-10T12:25:39;101281.74;;;31.68;61.37
79273;BME280;68718;-19.302;146.788;2023-04-10T12:28:04;101281.80;;;31.02;62.72
79273;BME280;68718;-19.302;146.788;2023-04-10T12:30:29;101281.10;;;31.16;62.19